Caledonia, WI

11:21 PM CST on November 28, 2014 (GMT -0600)
27th And Ryan Road | Change Station
CLOSE
Current Station
Personal Weather Station
Location: Oak Creek, WI
Elevation: 720 ft
Nearby Weather Stations

Elev 720 ft 42.87 °N, 87.95 °W | Updated 6 seconds ago

Mostly Cloudy
Mostly Cloudy
31.0 °F
Feels Like 31 °F
N
0.0
Wind Variable Wind from ESE
Gusts 1.0 mph

Today
High -- | Low -- °F
--% Chance of Precip.
Yesterday
High -- | Low -- °F
Precip. -- in
6:59 AM 4:19 PM
Waxing Crescent, 48% visible
Pressure 29.91 in
Visibility 7.0 miles
Clouds Few 12000 ft
Windchill 31 °F
Dew Point 31 °F
Humidity 100%
Rainfall 0.00 in
Snow Depth Not available.
UV 0.0 out of 12
Pollen .10 out of 12
Air Quality Not available.
Flu Activity Not available.
METAR KRAC 290453Z AUTO 17010KT 7SM FEW120 01/M02 A2989 RMK AO2 SLP129 T00111017

More Conditions Fewer Conditions

Pressure 29.91 in
Visibility 7.0 miles
Clouds Few 12000 ft
Windchill 31 °F
Dew Point 31 °F
Humidity 100%
Rainfall 0.00 in
Snow Depth Not available.
UV 0.0 out of 12
Pollen .10 out of 12
Air Quality Not available.
Flu Activity Not available.
METAR KRAC 290453Z AUTO 17010KT 7SM FEW120 01/M02 A2989 RMK AO2 SLP129 T00111017

More Conditions Fewer Conditions

10-Day Weather Forecast

Almanac

Astronomy

Nov. 28, 2014 Rise Set
Actual Time
Civil Twilight
Nautical Twilight
Astronomical Twilight
Moon
Length of Visible Light
Length of Day
Tomorrow will be .
, % of the Moon is Illuminated

Today's Extremes

State Highs State Lows

Community

WunderPhotos

Upload Photos

1,774,419 photos uploaded!

WunderBlogs® & News

Nearby

Air Quality

  Air Quality AQ Index Pollutant
Not available.

Snow Depth

Station Depth Elevation

Earthquake Activity

City Distance Mag. Time & Date
Minimum magnitude displayed is 2.5.

Coastal Water Temperatures

Place Temperature

Nearby Weather Stations